sensor_id;sensor_type;location;lat;lon;timestamp;temperature;humidity
23251;DHT22;11794;49.730;10.088;2022-07-01T00:00:31;20.30;99.90
23251;DHT22;11794;49.730;10.088;2022-07-01T00:02:57;20.30;99.90
23251;DHT22;11794;49.730;10.088;2022-07-01T00:05:22;20.10;99.90
23251;DHT22;11794;49.730;10.088;2022-07-01T00:07:48;20.00;99.90
23251;DHT22;11794;49.730;10.088;2022-07-01T00:10:14;19.80;99.90
23251;DHT22;11794;49.730;10.088;2022-07-01T00:12:39;19.50;99.90
23251;DHT22;11794;49.730;10.088;2022-07-01T00:15:05;19.40;99.90
23251;DHT22;11794;49.730;10.088;2022-07-01T00:17:31;19.40;99.90
23251;DHT22;11794;49.730;10.088;2022-07-01T00:19:56;19.20;99.90
23251;DHT22;11794;49.730;10.088;2022-07-01T00:22:22;19.10;99.90
23251;DHT22;11794;49.730;10.088;2022-07-01T00:24:47;19.10;99.90
23251;DHT22;11794;49.730;10.088;2022-07-01T00:27:16;19.10;99.90
23251;DHT22;11794;49.730;10.088;2022-07-01T00:29:42;19.00;99.90
23251;DHT22;11794;49.730;10.088;2022-07-01T00:32:08;19.00;99.90
23251;DHT22;11794;49.730;10.088;2022-07-01T00:34:34;19.00;99.90
23251;DHT22;11794;49.730;10.088;2022-07-01T00:37:00;18.90;99.90
23251;DHT22;11794;49.730;10.088;2022-07-01T00:39:26;18.90;99.90
23251;DHT22;11794;49.730;10.088;2022-07-01T00:41:51;18.90;99.90
23251;DHT22;11794;49.730;10.088;2022-07-01T00:44:20;18.80;99.90
23251;DHT22;11794;49.730;10.088;2022-07-01T00:46:50;18.70;99.90
23251;DHT22;11794;49.730;10.088;2022-07-01T00:49:16;18.60;99.90
23251;DHT22;11794;49.730;10.088;2022-07-01T00:51:43;18.50;99.90
23251;DHT22;11794;49.730;10.088;2022-07-01T00:54:09;18.30;99.90
23251;DHT22;11794;49.730;10.088;2022-07-01T00:56:35;18.30;99.90
23251;DHT22;11794;49.730;10.088;2022-07-01T00:59:01;18.20;99.90
23251;DHT22;11794;49.730;10.088;2022-07-01T01:01:26;18.10;99.90
23251;DHT22;11794;49.730;10.088;2022-07-01T01:03:52;18.10;99.90
23251;DHT22;11794;49.730;10.088;2022-07-01T01:06:18;18.00;99.90
23251;DHT22;11794;49.730;10.088;2022-07-01T01:08:44;18.00;99.90
23251;DHT22;11794;49.730;10.088;2022-07-01T01:11:10;18.00;99.90
23251;DHT22;11794;49.730;10.088;2022-07-01T01:13:36;18.00;99.90
23251;DHT22;11794;49.730;10.088;2022-07-01T01:16:02;17.90;99.90
23251;DHT22;11794;49.730;10.088;2022-07-01T01:18:27;17.90;99.90
23251;DHT22;11794;49.730;10.088;2022-07-01T01:24:15;17.70;99.90
23251;DHT22;11794;49.730;10.088;2022-07-01T01:26:40;17.80;99.90
23251;DHT22;11794;49.730;10.088;2022-07-01T01:29:06;17.80;99.90
23251;DHT22;11794;49.730;10.088;2022-07-01T01:31:32;17.70;99.90
23251;DHT22;11794;49.730;10.088;2022-07-01T01:33:58;17.60;99.90
23251;DHT22;11794;49.730;10.088;2022-07-01T01:36:24;17.60;99.90
23251;DHT22;11794;49.730;10.088;2022-07-01T01:38:49;17.50;99.90
23251;DHT22;11794;49.730;10.088;2022-07-01T01:41:15;17.60;99.90
23251;DHT22;11794;49.730;10.088;2022-07-01T01:43:40;17.50;99.90
23251;DHT22;11794;49.730;10.088;2022-07-01T01:46:06;17.50;99.90
23251;DHT22;11794;49.730;10.088;2022-07-01T01:48:32;17.30;99.90
23251;DHT22;11794;49.730;10.088;2022-07-01T01:50:57;17.20;99.90
23251;DHT22;11794;49.730;10.088;2022-07-01T01:53:23;17.10;99.90
23251;DHT22;11794;49.730;10.088;2022-07-01T01:55:49;17.20;99.90
23251;DHT22;11794;49.730;10.088;2022-07-01T01:58:15;17.20;99.90
23251;DHT22;11794;49.730;10.088;2022-07-01T02:00:40;17.20;99.90
23251;DHT22;11794;49.730;10.088;2022-07-01T02:03:06;17.10;99.90
23251;DHT22;11794;49.730;10.088;2022-07-01T02:05:32;17.10;99.90
23251;DHT22;11794;49.730;10.088;2022-07-01T02:07:57;17.00;99.90
23251;DHT22;11794;49.730;10.088;2022-07-01T02:10:23;16.90;99.90
23251;DHT22;11794;49.730;10.088;2022-07-01T02:12:48;16.90;99.90
23251;DHT22;11794;49.730;10.088;2022-07-01T02:15:14;16.80;99.90
23251;DHT22;11794;49.730;10.088;2022-07-01T02:17:39;16.80;99.90
23251;DHT22;11794;49.730;10.088;2022-07-01T02:20:05;16.70;99.90
23251;DHT22;11794;49.730;10.088;2022-07-01T02:22:31;16.50;99.90
23251;DHT22;11794;49.730;10.088;2022-07-01T02:24:56;16.40;99.90
23251;DHT22;11794;49.730;10.088;2022-07-01T02:27:22;16.40;99.90
23251;DHT22;11794;49.730;10.088;2022-07-01T02:29:47;16.40;99.90
23251;DHT22;11794;49.730;10.088;2022-07-01T02:32:13;16.40;99.90
23251;DHT22;11794;49.730;10.088;2022-07-01T02:34:38;16.30;99.90
23251;DHT22;11794;49.730;10.088;2022-07-01T02:37:04;16.30;99.90
23251;DHT22;11794;49.730;10.088;2022-07-01T02:39:30;16.20;99.90
23251;DHT22;11794;49.730;10.088;2022-07-01T02:41:56;16.20;99.90
23251;DHT22;11794;49.730;10.088;2022-07-01T02:44:40;16.30;99.90
23251;DHT22;11794;49.730;10.088;2022-07-01T02:47:06;16.30;99.90
23251;DHT22;11794;49.730;10.088;2022-07-01T02:49:31;16.50;99.90
23251;DHT22;11794;49.730;10.088;2022-07-01T02:51:57;16.50;99.90
23251;DHT22;11794;49.730;10.088;2022-07-01T02:54:22;16.30;99.90
23251;DHT22;11794;49.730;10.088;2022-07-01T02:56:48;16.30;99.90
23251;DHT22;11794;49.730;10.088;2022-07-01T02:59:13;16.30;99.90
23251;DHT22;11794;49.730;10.088;2022-07-01T03:01:39;16.20;99.90
23251;DHT22;11794;49.730;10.088;2022-07-01T03:04:04;16.20;99.90
23251;DHT22;11794;49.730;10.088;2022-07-01T03:06:30;16.20;99.90
23251;DHT22;11794;49.730;10.088;2022-07-01T03:08:55;16.20;99.90
23251;DHT22;11794;49.730;10.088;2022-07-01T03:11:23;16.20;99.90
23251;DHT22;11794;49.730;10.088;2022-07-01T03:13:48;16.20;99.90
23251;DHT22;11794;49.730;10.088;2022-07-01T03:16:14;16.20;99.90
23251;DHT22;11794;49.730;10.088;2022-07-01T03:18:40;16.10;99.90
23251;DHT22;11794;49.730;10.088;2022-07-01T03:21:05;16.00;99.90
23251;DHT22;11794;49.730;10.088;2022-07-01T03:23:31;16.00;99.90
23251;DHT22;11794;49.730;10.088;2022-07-01T03:25:57;15.90;99.90
23251;DHT22;11794;49.730;10.088;2022-07-01T03:28:22;15.90;99.90
23251;DHT22;11794;49.730;10.088;2022-07-01T03:30:47;15.90;99.90
23251;DHT22;11794;49.730;10.088;2022-07-01T03:33:13;16.00;99.90
23251;DHT22;11794;49.730;10.088;2022-07-01T03:35:38;16.00;99.90
23251;DHT22;11794;49.730;10.088;2022-07-01T03:38:11;16.00;99.90
23251;DHT22;11794;49.730;10.088;2022-07-01T03:40:37;16.00;99.90
23251;DHT22;11794;49.730;10.088;2022-07-01T03:43:03;16.00;99.90
23251;DHT22;11794;49.730;10.088;2022-07-01T03:45:29;16.10;99.90
23251;DHT22;11794;49.730;10.088;2022-07-01T03:47:54;15.90;99.90
23251;DHT22;11794;49.730;10.088;2022-07-01T03:50:21;15.80;99.90
23251;DHT22;11794;49.730;10.088;2022-07-01T03:52:47;15.80;99.90
23251;DHT22;11794;49.730;10.088;2022-07-01T03:55:13;15.80;99.90
23251;DHT22;11794;49.730;10.088;2022-07-01T03:57:39;15.90;99.90
23251;DHT22;11794;49.730;10.088;2022-07-01T04:00:06;15.90;99.90
23251;DHT22;11794;49.730;10.088;2022-07-01T04:02:32;15.90;99.90
23251;DHT22;11794;49.730;10.088;2022-07-01T04:04:57;15.90;99.90
23251;DHT22;11794;49.730;10.088;2022-07-01T04:07:23;16.00;99.90
23251;DHT22;11794;49.730;10.088;2022-07-01T04:09:49;16.00;99.90
23251;DHT22;11794;49.730;10.088;2022-07-01T04:12:15;16.10;99.90
23251;DHT22;11794;49.730;10.088;2022-07-01T04:14:40;16.00;99.90
23251;DHT22;11794;49.730;10.088;2022-07-01T04:17:06;16.10;99.90
23251;DHT22;11794;49.730;10.088;2022-07-01T04:19:32;16.10;99.90
23251;DHT22;11794;49.730;10.088;2022-07-01T04:21:57;16.00;99.90
23251;DHT22;11794;49.730;10.088;2022-07-01T04:24:42;16.10;99.90
23251;DHT22;11794;49.730;10.088;2022-07-01T04:27:07;16.10;99.90
23251;DHT22;11794;49.730;10.088;2022-07-01T04:29:33;16.00;99.90
23251;DHT22;11794;49.730;10.088;2022-07-01T04:31:58;15.80;99.90
23251;DHT22;11794;49.730;10.088;2022-07-01T04:34:24;15.70;99.90
23251;DHT22;11794;49.730;10.088;2022-07-01T04:36:50;15.70;99.90
23251;DHT22;11794;49.730;10.088;2022-07-01T04:39:16;15.70;99.90
23251;DHT22;11794;49.730;10.088;2022-07-01T04:41:42;15.50;99.90
23251;DHT22;11794;49.730;10.088;2022-07-01T04:44:30;15.50;99.90
23251;DHT22;11794;49.730;10.088;2022-07-01T04:46:56;15.50;99.90
23251;DHT22;11794;49.730;10.088;2022-07-01T04:49:22;15.40;99.90
23251;DHT22;11794;49.730;10.088;2022-07-01T04:51:48;15.30;99.90
23251;DHT22;11794;49.730;10.088;2022-07-01T04:54:13;15.30;99.90
23251;DHT22;11794;49.730;10.088;2022-07-01T04:56:39;15.30;99.90
23251;DHT22;11794;49.730;10.088;2022-07-01T04:59:05;15.20;99.90
23251;DHT22;11794;49.730;10.088;2022-07-01T05:01:30;15.20;99.90
23251;DHT22;11794;49.730;10.088;2022-07-01T05:03:57;15.20;99.90
23251;DHT22;11794;49.730;10.088;2022-07-01T05:06:23;15.20;99.90
23251;DHT22;11794;49.730;10.088;2022-07-01T05:08:49;15.20;99.90
23251;DHT22;11794;49.730;10.088;2022-07-01T05:11:14;15.20;99.90
23251;DHT22;11794;49.730;10.088;2022-07-01T05:13:40;15.10;99.90
23251;DHT22;11794;49.730;10.088;2022-07-01T05:16:06;15.10;99.90
23251;DHT22;11794;49.730;10.088;2022-07-01T05:18:33;15.10;99.90
23251;DHT22;11794;49.730;10.088;2022-07-01T05:21:18;15.10;99.90
23251;DHT22;11794;49.730;10.088;2022-07-01T05:24:02;15.10;99.90
23251;DHT22;11794;49.730;10.088;2022-07-01T05:26:28;15.10;99.90
23251;DHT22;11794;49.730;10.088;2022-07-01T05:28:54;15.00;99.90
23251;DHT22;11794;49.730;10.088;2022-07-01T05:31:20;15.00;99.90
23251;DHT22;11794;49.730;10.088;2022-07-01T05:33:46;15.00;99.90
23251;DHT22;11794;49.730;10.088;2022-07-01T05:36:12;15.00;99.90
23251;DHT22;11794;49.730;10.088;2022-07-01T05:38:38;15.00;99.90
23251;DHT22;11794;49.730;10.088;2022-07-01T05:41:04;15.00;99.90
23251;DHT22;11794;49.730;10.088;2022-07-01T05:43:29;15.00;99.90
23251;DHT22;11794;49.730;10.088;2022-07-01T05:45:56;15.00;99.90
23251;DHT22;11794;49.730;10.088;2022-07-01T05:48:21;15.00;99.90
23251;DHT22;11794;49.730;10.088;2022-07-01T05:50:47;15.00;99.90
23251;DHT22;11794;49.730;10.088;2022-07-01T05:53:13;15.00;99.90
23251;DHT22;11794;49.730;10.088;2022-07-01T05:55:39;14.90;99.90
23251;DHT22;11794;49.730;10.088;2022-07-01T05:58:04;15.00;99.90
23251;DHT22;11794;49.730;10.088;2022-07-01T06:00:31;15.10;99.90
23251;DHT22;11794;49.730;10.088;2022-07-01T06:02:57;15.20;99.90
23251;DHT22;11794;49.730;10.088;2022-07-01T06:05:22;15.20;99.90
23251;DHT22;11794;49.730;10.088;2022-07-01T06:07:48;15.20;99.90
23251;DHT22;11794;49.730;10.088;2022-07-01T06:10:13;15.30;99.90
23251;DHT22;11794;49.730;10.088;2022-07-01T06:12:39;15.30;99.90
23251;DHT22;11794;49.730;10.088;2022-07-01T06:15:06;15.30;99.90
23251;DHT22;11794;49.730;10.088;2022-07-01T06:17:36;15.20;99.90
23251;DHT22;11794;49.730;10.088;2022-07-01T06:20:02;15.30;99.90
23251;DHT22;11794;49.730;10.088;2022-07-01T06:22:29;15.30;99.90
23251;DHT22;11794;49.730;10.088;2022-07-01T06:24:54;15.30;99.90
23251;DHT22;11794;49.730;10.088;2022-07-01T06:27:20;15.20;99.90
23251;DHT22;11794;49.730;10.088;2022-07-01T06:29:45;15.30;99.90
23251;DHT22;11794;49.730;10.088;2022-07-01T06:32:11;15.20;99.90
23251;DHT22;11794;49.730;10.088;2022-07-01T06:34:37;15.20;99.90
23251;DHT22;11794;49.730;10.088;2022-07-01T06:37:03;15.20;99.90
23251;DHT22;11794;49.730;10.088;2022-07-01T06:39:29;15.20;99.90
23251;DHT22;11794;49.730;10.088;2022-07-01T06:41:56;15.40;99.90
23251;DHT22;11794;49.730;10.088;2022-07-01T06:44:21;15.40;99.90
23251;DHT22;11794;49.730;10.088;2022-07-01T06:46:47;15.40;99.90
23251;DHT22;11794;49.730;10.088;2022-07-01T06:49:13;15.30;99.90
23251;DHT22;11794;49.730;10.088;2022-07-01T06:51:39;15.30;99.90
23251;DHT22;11794;49.730;10.088;2022-07-01T06:54:05;15.40;99.90
23251;DHT22;11794;49.730;10.088;2022-07-01T06:56:31;15.50;99.90
23251;DHT22;11794;49.730;10.088;2022-07-01T06:58:57;15.60;99.90
23251;DHT22;11794;49.730;10.088;2022-07-01T07:01:23;15.70;99.90
23251;DHT22;11794;49.730;10.088;2022-07-01T07:03:49;15.70;99.90
23251;DHT22;11794;49.730;10.088;2022-07-01T07:06:15;15.70;99.90
23251;DHT22;11794;49.730;10.088;2022-07-01T07:08:41;15.60;99.90
23251;DHT22;11794;49.730;10.088;2022-07-01T07:11:06;15.60;99.90
23251;DHT22;11794;49.730;10.088;2022-07-01T07:13:37;15.70;99.90
23251;DHT22;11794;49.730;10.088;2022-07-01T07:16:03;15.70;99.90
23251;DHT22;11794;49.730;10.088;2022-07-01T07:18:28;15.80;99.90
23251;DHT22;11794;49.730;10.088;2022-07-01T07:20:54;15.80;99.90
23251;DHT22;11794;49.730;10.088;2022-07-01T07:23:20;15.80;99.90
23251;DHT22;11794;49.730;10.088;2022-07-01T07:25:45;15.80;99.90
23251;DHT22;11794;49.730;10.088;2022-07-01T07:28:11;15.80;99.90
23251;DHT22;11794;49.730;10.088;2022-07-01T07:30:37;15.80;99.90
23251;DHT22;11794;49.730;10.088;2022-07-01T07:33:02;15.70;99.90
23251;DHT22;11794;49.730;10.088;2022-07-01T07:35:28;15.60;99.90
23251;DHT22;11794;49.730;10.088;2022-07-01T07:37:53;15.60;99.90
23251;DHT22;11794;49.730;10.088;2022-07-01T07:40:19;15.60;99.90
23251;DHT22;11794;49.730;10.088;2022-07-01T07:42:46;15.60;99.90
23251;DHT22;11794;49.730;10.088;2022-07-01T07:45:12;15.60;99.90
23251;DHT22;11794;49.730;10.088;2022-07-01T07:47:45;15.50;99.90
23251;DHT22;11794;49.730;10.088;2022-07-01T07:50:12;15.40;99.90
23251;DHT22;11794;49.730;10.088;2022-07-01T07:52:38;15.50;99.90
23251;DHT22;11794;49.730;10.088;2022-07-01T07:55:05;15.40;99.90
23251;DHT22;11794;49.730;10.088;2022-07-01T07:57:31;15.50;99.90
23251;DHT22;11794;49.730;10.088;2022-07-01T07:59:57;15.50;99.90
23251;DHT22;11794;49.730;10.088;2022-07-01T08:02:22;15.60;99.90
23251;DHT22;11794;49.730;10.088;2022-07-01T08:04:48;15.70;99.90
23251;DHT22;11794;49.730;10.088;2022-07-01T08:07:13;15.60;99.90
23251;DHT22;11794;49.730;10.088;2022-07-01T08:09:39;15.70;99.90
23251;DHT22;11794;49.730;10.088;2022-07-01T08:12:07;15.70;99.90
23251;DHT22;11794;49.730;10.088;2022-07-01T08:14:33;15.70;99.90
23251;DHT22;11794;49.730;10.088;2022-07-01T08:16:58;15.80;99.90
23251;DHT22;11794;49.730;10.088;2022-07-01T08:19:24;15.80;99.90
23251;DHT22;11794;49.730;10.088;2022-07-01T08:21:49;15.80;99.90
23251;DHT22;11794;49.730;10.088;2022-07-01T08:24:15;15.80;99.90
23251;DHT22;11794;49.730;10.088;2022-07-01T08:26:40;15.80;99.90
23251;DHT22;11794;49.730;10.088;2022-07-01T08:29:06;15.60;99.90
23251;DHT22;11794;49.730;10.088;2022-07-01T08:31:31;15.60;99.90
23251;DHT22;11794;49.730;10.088;2022-07-01T08:33:57;15.60;99.90
23251;DHT22;11794;49.730;10.088;2022-07-01T08:36:23;15.50;99.90
23251;DHT22;11794;49.730;10.088;2022-07-01T08:38:49;15.50;99.90
23251;DHT22;11794;49.730;10.088;2022-07-01T08:41:16;15.50;99.90
23251;DHT22;11794;49.730;10.088;2022-07-01T08:43:44;15.40;99.90
23251;DHT22;11794;49.730;10.088;2022-07-01T08:46:10;15.40;99.90
23251;DHT22;11794;49.730;10.088;2022-07-01T08:48:35;15.50;99.90
23251;DHT22;11794;49.730;10.088;2022-07-01T08:51:01;15.60;99.90
23251;DHT22;11794;49.730;10.088;2022-07-01T08:53:30;15.60;99.90
23251;DHT22;11794;49.730;10.088;2022-07-01T08:55:55;15.60;99.90
23251;DHT22;11794;49.730;10.088;2022-07-01T08:58:39;15.70;99.90
23251;DHT22;11794;49.730;10.088;2022-07-01T09:03:37;15.70;99.90
23251;DHT22;11794;49.730;10.088;2022-07-01T09:06:14;15.70;99.90
23251;DHT22;11794;49.730;10.088;2022-07-01T09:08:41;15.80;99.90
23251;DHT22;11794;49.730;10.088;2022-07-01T09:11:17;15.80;99.90
23251;DHT22;11794;49.730;10.088;2022-07-01T09:13:43;16.00;99.90
23251;DHT22;11794;49.730;10.088;2022-07-01T09:16:14;16.10;99.90
23251;DHT22;11794;49.730;10.088;2022-07-01T09:18:40;16.20;99.90
23251;DHT22;11794;49.730;10.088;2022-07-01T09:21:13;16.10;99.90
23251;DHT22;11794;49.730;10.088;2022-07-01T09:23:39;16.20;99.90
23251;DHT22;11794;49.730;10.088;2022-07-01T09:26:05;16.20;99.90
23251;DHT22;11794;49.730;10.088;2022-07-01T09:28:31;16.20;99.90
23251;DHT22;11794;49.730;10.088;2022-07-01T09:30:57;16.20;99.90
23251;DHT22;11794;49.730;10.088;2022-07-01T09:33:26;16.20;99.90
23251;DHT22;11794;49.730;10.088;2022-07-01T09:35:52;16.30;99.90
23251;DHT22;11794;49.730;10.088;2022-07-01T09:38:23;16.40;99.90
23251;DHT22;11794;49.730;10.088;2022-07-01T09:40:56;16.40;99.90
23251;DHT22;11794;49.730;10.088;2022-07-01T09:43:30;16.50;99.90
23251;DHT22;11794;49.730;10.088;2022-07-01T09:45:58;16.60;99.90
23251;DHT22;11794;49.730;10.088;2022-07-01T09:48:42;16.60;99.90
23251;DHT22;11794;49.730;10.088;2022-07-01T09:51:10;16.70;99.90
23251;DHT22;11794;49.730;10.088;2022-07-01T09:53:36;16.70;99.90
23251;DHT22;11794;49.730;10.088;2022-07-01T09:56:02;16.70;99.90
23251;DHT22;11794;49.730;10.088;2022-07-01T09:58:27;16.70;99.90
23251;DHT22;11794;49.730;10.088;2022-07-01T10:00:54;16.70;99.90
23251;DHT22;11794;49.730;10.088;2022-07-01T10:03:20;16.70;99.90
23251;DHT22;11794;49.730;10.088;2022-07-01T10:05:57;16.80;99.90
23251;DHT22;11794;49.730;10.088;2022-07-01T10:14:30;16.60;99.90
23251;DHT22;11794;49.730;10.088;2022-07-01T10:16:56;16.60;99.90
23251;DHT22;11794;49.730;10.088;2022-07-01T10:19:29;16.60;99.90
23251;DHT22;11794;49.730;10.088;2022-07-01T10:22:00;16.70;99.90
23251;DHT22;11794;49.730;10.088;2022-07-01T10:24:27;16.60;99.90
23251;DHT22;11794;49.730;10.088;2022-07-01T10:26:59;16.50;99.90
23251;DHT22;11794;49.730;10.088;2022-07-01T10:29:36;16.20;99.90
23251;DHT22;11794;49.730;10.088;2022-07-01T10:32:08;15.90;99.90
23251;DHT22;11794;49.730;10.088;2022-07-01T10:34:35;15.80;99.90
23251;DHT22;11794;49.730;10.088;2022-07-01T10:37:09;15.70;99.90
23251;DHT22;11794;49.730;10.088;2022-07-01T10:39:55;15.60;99.90
23251;DHT22;11794;49.730;10.088;2022-07-01T10:42:21;15.60;99.90
23251;DHT22;11794;49.730;10.088;2022-07-01T10:45:11;15.60;99.90
23251;DHT22;11794;49.730;10.088;2022-07-01T10:47:38;15.70;99.90
23251;DHT22;11794;49.730;10.088;2022-07-01T10:52:30;15.90;99.90
23251;DHT22;11794;49.730;10.088;2022-07-01T10:54:59;15.80;99.90
23251;DHT22;11794;49.730;10.088;2022-07-01T10:57:40;15.70;99.90
23251;DHT22;11794;49.730;10.088;2022-07-01T11:02:36;15.70;99.90
23251;DHT22;11794;49.730;10.088;2022-07-01T11:05:04;15.70;99.90
23251;DHT22;11794;49.730;10.088;2022-07-01T11:07:35;15.60;99.90
23251;DHT22;11794;49.730;10.088;2022-07-01T11:10:04;15.50;99.90
23251;DHT22;11794;49.730;10.088;2022-07-01T11:12:30;15.50;99.90
23251;DHT22;11794;49.730;10.088;2022-07-01T11:14:57;15.40;99.90
23251;DHT22;11794;49.730;10.088;2022-07-01T11:17:25;15.30;99.90
23251;DHT22;11794;49.730;10.088;2022-07-01T11:19:53;15.40;99.90
23251;DHT22;11794;49.730;10.088;2022-07-01T11:22:24;15.40;99.90
23251;DHT22;11794;49.730;10.088;2022-07-01T11:24:55;15.20;99.90
23251;DHT22;11794;49.730;10.088;2022-07-01T11:27:21;15.20;99.90
23251;DHT22;11794;49.730;10.088;2022-07-01T11:29:52;15.10;99.90
23251;DHT22;11794;49.730;10.088;2022-07-01T11:32:30;15.10;99.90
23251;DHT22;11794;49.730;10.088;2022-07-01T11:34:57;15.20;99.90
23251;DHT22;11794;49.730;10.088;2022-07-01T11:37:25;15.30;99.90
23251;DHT22;11794;49.730;10.088;2022-07-01T11:40:12;15.40;99.90
23251;DHT22;11794;49.730;10.088;2022-07-01T11:42:38;15.50;99.90
23251;DHT22;11794;49.730;10.088;2022-07-01T11:45:05;15.70;99.90
23251;DHT22;11794;49.730;10.088;2022-07-01T11:47:31;15.80;99.90
23251;DHT22;11794;49.730;10.088;2022-07-01T11:49:57;15.80;99.90
23251;DHT22;11794;49.730;10.088;2022-07-01T11:52:23;15.70;99.90
23251;DHT22;11794;49.730;10.088;2022-07-01T11:54:53;15.50;99.90
23251;DHT22;11794;49.730;10.088;2022-07-01T11:57:21;15.40;99.90
23251;DHT22;11794;49.730;10.088;2022-07-01T11:59:48;15.20;99.90
23251;DHT22;11794;49.730;10.088;2022-07-01T12:02:16;15.10;99.90
23251;DHT22;11794;49.730;10.088;2022-07-01T12:04:43;15.10;99.90
23251;DHT22;11794;49.730;10.088;2022-07-01T12:07:10;15.10;99.90
23251;DHT22;11794;49.730;10.088;2022-07-01T12:09:37;15.00;99.90
23251;DHT22;11794;49.730;10.088;2022-07-01T12:12:04;14.90;99.90
23251;DHT22;11794;49.730;10.088;2022-07-01T12:14:32;15.00;99.90
23251;DHT22;11794;49.730;10.088;2022-07-01T12:17:00;15.10;99.90
23251;DHT22;11794;49.730;10.088;2022-07-01T12:19:39;15.20;99.90
23251;DHT22;11794;49.730;10.088;2022-07-01T12:22:08;15.40;99.90
23251;DHT22;11794;49.730;10.088;2022-07-01T12:24:34;15.70;99.90
23251;DHT22;11794;49.730;10.088;2022-07-01T12:29:27;16.90;99.90
23251;DHT22;11794;49.730;10.088;2022-07-01T12:32:04;17.80;99.90
23251;DHT22;11794;49.730;10.088;2022-07-01T12:37:11;18.10;99.90
23251;DHT22;11794;49.730;10.088;2022-07-01T12:42:08;17.90;99.90
23251;DHT22;11794;49.730;10.088;2022-07-01T12:44:44;18.40;99.90
23251;DHT22;11794;49.730;10.088;2022-07-01T12:47:21;19.20;99.90
23251;DHT22;11794;49.730;10.088;2022-07-01T12:49:49;20.20;99.90
23251;DHT22;11794;49.730;10.088;2022-07-01T12:52:26;21.20;99.90
23251;DHT22;11794;49.730;10.088;2022-07-01T12:54:52;21.20;99.90
23251;DHT22;11794;49.730;10.088;2022-07-01T12:57:29;20.90;99.90
23251;DHT22;11794;49.730;10.088;2022-07-01T12:59:55;20.70;99.90
23251;DHT22;11794;49.730;10.088;2022-07-01T13:02:20;20.50;99.90
23251;DHT22;11794;49.730;10.088;2022-07-01T13:04:46;20.30;99.90
23251;DHT22;11794;49.730;10.088;2022-07-01T13:07:11;20.70;99.90
23251;DHT22;11794;49.730;10.088;2022-07-01T13:09:37;21.60;99.90
23251;DHT22;11794;49.730;10.088;2022-07-01T13:12:02;21.70;99.90
23251;DHT22;11794;49.730;10.088;2022-07-01T13:14:28;21.60;99.90
23251;DHT22;11794;49.730;10.088;2022-07-01T13:16:54;21.10;99.90
23251;DHT22;11794;49.730;10.088;2022-07-01T13:19:19;20.60;99.90
23251;DHT22;11794;49.730;10.088;2022-07-01T13:21:45;20.00;99.90
23251;DHT22;11794;49.730;10.088;2022-07-01T13:24:10;19.80;99.90
23251;DHT22;11794;49.730;10.088;2022-07-01T13:26:38;19.90;99.90
23251;DHT22;11794;49.730;10.088;2022-07-01T13:29:04;20.00;99.90
23251;DHT22;11794;49.730;10.088;2022-07-01T13:31:30;20.10;99.90
23251;DHT22;11794;49.730;10.088;2022-07-01T13:33:55;20.50;99.90
23251;DHT22;11794;49.730;10.088;2022-07-01T13:36:21;20.80;99.90
23251;DHT22;11794;49.730;10.088;2022-07-01T13:38:46;21.10;99.90
23251;DHT22;11794;49.730;10.088;2022-07-01T13:41:14;21.10;99.90
23251;DHT22;11794;49.730;10.088;2022-07-01T13:43:40;21.20;99.90
23251;DHT22;11794;49.730;10.088;2022-07-01T13:46:05;21.80;99.90
23251;DHT22;11794;49.730;10.088;2022-07-01T13:48:32;22.00;99.90
23251;DHT22;11794;49.730;10.088;2022-07-01T13:50:57;22.20;99.90
23251;DHT22;11794;49.730;10.088;2022-07-01T13:53:23;21.50;99.90
23251;DHT22;11794;49.730;10.088;2022-07-01T13:55:49;21.50;99.90
23251;DHT22;11794;49.730;10.088;2022-07-01T13:58:14;21.10;99.90
23251;DHT22;11794;49.730;10.088;2022-07-01T14:00:41;20.90;99.90
23251;DHT22;11794;49.730;10.088;2022-07-01T14:03:07;20.00;99.90
23251;DHT22;11794;49.730;10.088;2022-07-01T14:05:32;19.80;99.90
23251;DHT22;11794;49.730;10.088;2022-07-01T14:07:58;19.80;99.90
23251;DHT22;11794;49.730;10.088;2022-07-01T14:10:23;19.90;99.90
23251;DHT22;11794;49.730;10.088;2022-07-01T14:12:49;20.00;99.90
23251;DHT22;11794;49.730;10.088;2022-07-01T14:15:14;20.50;99.90
23251;DHT22;11794;49.730;10.088;2022-07-01T14:17:41;21.20;99.90
23251;DHT22;11794;49.730;10.088;2022-07-01T14:20:07;21.20;99.90
23251;DHT22;11794;49.730;10.088;2022-07-01T14:22:32;21.40;99.90
23251;DHT22;11794;49.730;10.088;2022-07-01T14:24:58;21.60;99.90
23251;DHT22;11794;49.730;10.088;2022-07-01T14:27:23;21.50;99.90
23251;DHT22;11794;49.730;10.088;2022-07-01T14:29:49;21.70;99.90
23251;DHT22;11794;49.730;10.088;2022-07-01T14:32:14;21.40;99.90
23251;DHT22;11794;49.730;10.088;2022-07-01T14:34:40;20.80;99.90
23251;DHT22;11794;49.730;10.088;2022-07-01T14:37:05;20.50;99.90
23251;DHT22;11794;49.730;10.088;2022-07-01T14:39:31;20.50;99.90
23251;DHT22;11794;49.730;10.088;2022-07-01T14:41:56;20.00;99.90
23251;DHT22;11794;49.730;10.088;2022-07-01T14:44:22;19.90;99.90
23251;DHT22;11794;49.730;10.088;2022-07-01T14:46:48;20.00;99.90
23251;DHT22;11794;49.730;10.088;2022-07-01T14:49:13;20.20;99.90
23251;DHT22;11794;49.730;10.088;2022-07-01T14:51:41;20.20;99.90
23251;DHT22;11794;49.730;10.088;2022-07-01T14:54:06;20.10;99.90
23251;DHT22;11794;49.730;10.088;2022-07-01T14:56:32;20.10;99.90
23251;DHT22;11794;49.730;10.088;2022-07-01T14:58:57;20.20;99.90
23251;DHT22;11794;49.730;10.088;2022-07-01T15:01:23;20.40;99.90
23251;DHT22;11794;49.730;10.088;2022-07-01T15:03:48;20.50;99.90
23251;DHT22;11794;49.730;10.088;2022-07-01T15:06:14;20.50;99.90
23251;DHT22;11794;49.730;10.088;2022-07-01T15:08:39;20.50;99.90
23251;DHT22;11794;49.730;10.088;2022-07-01T15:11:06;19.90;99.90
23251;DHT22;11794;49.730;10.088;2022-07-01T15:13:32;19.60;99.90
23251;DHT22;11794;49.730;10.088;2022-07-01T15:16:00;19.60;99.90
23251;DHT22;11794;49.730;10.088;2022-07-01T15:18:26;19.90;99.90
23251;DHT22;11794;49.730;10.088;2022-07-01T15:20:52;20.30;99.90
23251;DHT22;11794;49.730;10.088;2022-07-01T15:23:17;20.60;99.90
23251;DHT22;11794;49.730;10.088;2022-07-01T15:25:43;20.80;99.90
23251;DHT22;11794;49.730;10.088;2022-07-01T15:28:08;20.60;99.90
23251;DHT22;11794;49.730;10.088;2022-07-01T15:30:34;20.70;99.90
23251;DHT22;11794;49.730;10.088;2022-07-01T15:32:59;20.20;99.90
23251;DHT22;11794;49.730;10.088;2022-07-01T15:35:25;19.60;99.90
23251;DHT22;11794;49.730;10.088;2022-07-01T15:37:51;19.40;99.90